createdAt,value
2023-03-26T00:00:43.251Z,99.99
2023-03-26T00:01:42.893Z,99.99
2023-03-26T00:02:42.907Z,99.99
2023-03-26T00:03:42.842Z,99.99
2023-03-26T00:04:42.902Z,99.99
2023-03-26T00:05:43.952Z,99.99
2023-03-26T00:06:42.852Z,99.99
2023-03-26T00:07:43.130Z,99.99
2023-03-26T00:08:42.844Z,99.99
2023-03-26T00:09:42.799Z,99.99
2023-03-26T00:10:42.803Z,99.99
2023-03-26T00:11:42.873Z,99.99
2023-03-26T00:12:42.775Z,99.99
2023-03-26T00:13:42.787Z,99.99
2023-03-26T00:14:43.050Z,99.99
2023-03-26T00:15:42.754Z,99.99
2023-03-26T00:16:42.932Z,99.99
2023-03-26T00:17:42.831Z,99.99
2023-03-26T00:18:42.735Z,99.99
2023-03-26T00:19:42.721Z,99.99
2023-03-26T00:20:42.669Z,99.99
2023-03-26T00:21:42.949Z,99.99
2023-03-26T00:22:42.672Z,99.99
2023-03-26T00:23:42.716Z,99.99
2023-03-26T00:24:42.650Z,99.99
2023-03-26T00:25:42.650Z,99.99
2023-03-26T00:26:42.650Z,99.99
2023-03-26T00:27:42.618Z,99.99
2023-03-26T00:28:42.887Z,99.99
2023-03-26T00:29:42.663Z,99.99
2023-03-26T00:30:42.616Z,99.99
2023-03-26T00:31:42.575Z,99.99
2023-03-26T00:32:42.558Z,99.99
2023-03-26T00:33:42.559Z,99.99
2023-03-26T00:34:42.533Z,99.99
2023-03-26T00:35:42.851Z,99.99
2023-03-26T00:36:42.500Z,99.99
2023-03-26T00:37:42.484Z,99.99
2023-03-26T00:38:42.491Z,99.99
2023-03-26T00:39:42.489Z,99.99
2023-03-26T00:40:42.488Z,99.99
2023-03-26T00:41:42.502Z,99.99
2023-03-26T00:42:42.779Z,99.99
2023-03-26T00:43:42.449Z,99.99
2023-03-26T00:44:42.434Z,99.99
2023-03-26T00:45:42.497Z,99.99
2023-03-26T00:46:42.491Z,99.99
2023-03-26T00:47:42.527Z,99.99
2023-03-26T00:48:45.510Z,99.99
2023-03-26T00:49:42.691Z,99.99
2023-03-26T00:50:42.408Z,99.99
2023-03-26T00:51:42.352Z,99.99
2023-03-26T00:52:42.378Z,99.99
2023-03-26T00:53:42.397Z,99.99
2023-03-26T00:54:42.350Z,99.99
2023-03-26T00:55:42.345Z,99.99
2023-03-26T00:56:42.679Z,99.99
2023-03-26T00:57:42.325Z,99.99
2023-03-26T00:58:42.300Z,99.99
2023-03-26T00:59:42.324Z,99.99
2023-03-26T01:00:42.316Z,99.99
2023-03-26T01:01:42.295Z,99.99
2023-03-26T01:02:42.277Z,99.99
2023-03-26T01:03:50.097Z,99.99
2023-03-26T01:04:42.327Z,99.99
2023-03-26T01:05:42.267Z,99.99
2023-03-26T01:06:42.409Z,99.99
2023-03-26T01:07:42.188Z,99.99
2023-03-26T01:08:42.218Z,99.99
2023-03-26T01:09:42.164Z,99.99
2023-03-26T01:10:42.451Z,99.99
2023-03-26T01:11:42.219Z,99.99
2023-03-26T01:12:42.155Z,99.99
2023-03-26T01:13:42.162Z,99.99
2023-03-26T01:14:42.124Z,99.99
2023-03-26T01:15:42.206Z,99.99
2023-03-26T01:16:42.135Z,99.99
2023-03-26T01:17:42.465Z,99.99
2023-03-26T01:18:42.082Z,99.99
2023-03-26T01:19:42.092Z,99.99
2023-03-26T01:20:42.059Z,99.99
2023-03-26T01:21:42.067Z,99.99
2023-03-26T01:22:42.092Z,99.99
2023-03-26T01:23:42.054Z,99.99
2023-03-26T01:24:43.359Z,99.99
2023-03-26T01:25:42.019Z,99.99
2023-03-26T01:26:41.983Z,99.99
2023-03-26T01:27:42.003Z,99.99
2023-03-26T01:28:41.973Z,99.99
2023-03-26T01:29:41.994Z,99.99
2023-03-26T01:30:42.008Z,99.99
2023-03-26T01:31:42.271Z,99.99
2023-03-26T01:32:42.003Z,99.99
2023-03-26T01:33:41.977Z,99.99
2023-03-26T01:34:41.935Z,99.99
2023-03-26T01:35:42.016Z,99.99
2023-03-26T01:36:41.893Z,99.99
2023-03-26T01:37:41.895Z,99.99
2023-03-26T01:38:42.181Z,99.99
2023-03-26T01:39:41.876Z,99.99
2023-03-26T01:40:41.875Z,99.99
2023-03-26T01:41:41.897Z,99.99
2023-03-26T01:42:41.832Z,99.99
2023-03-26T01:43:41.869Z,99.99
2023-03-26T01:44:41.825Z,99.99
2023-03-26T01:45:42.121Z,99.99
2023-03-26T01:46:41.852Z,99.99
2023-03-26T01:47:41.851Z,99.99
2023-03-26T01:48:41.785Z,99.99
2023-03-26T01:49:41.761Z,99.99
2023-03-26T01:50:41.745Z,99.99
2023-03-26T01:51:41.735Z,99.99
2023-03-26T01:52:42.054Z,99.99
2023-03-26T01:53:41.774Z,99.99
2023-03-26T01:54:41.715Z,99.99
2023-03-26T01:55:41.695Z,99.99
2023-03-26T01:56:41.724Z,99.99
2023-03-26T01:57:41.686Z,99.99
2023-03-26T01:58:41.688Z,99.99
2023-03-26T01:59:41.691Z,99.99
2023-03-26T02:00:41.671Z,99.99
2023-03-26T02:01:41.745Z,99.99
2023-03-26T02:02:41.731Z,99.99
2023-03-26T02:03:41.691Z,99.99
2023-03-26T02:04:41.592Z,99.99
2023-03-26T02:05:41.951Z,99.99
2023-03-26T02:06:41.585Z,99.99
2023-03-26T02:07:41.585Z,99.99
2023-03-26T02:08:41.597Z,99.99
2023-03-26T02:09:41.616Z,99.99
2023-03-26T02:10:41.578Z,99.99
2023-03-26T02:11:41.602Z,99.99
2023-03-26T02:12:41.834Z,99.99
2023-03-26T02:13:41.551Z,99.99
2023-03-26T02:14:41.523Z,99.99
2023-03-26T02:15:41.475Z,99.99
2023-03-26T02:16:41.571Z,99.99
2023-03-26T02:17:41.559Z,99.99
2023-03-26T02:18:41.452Z,99.99
2023-03-26T02:19:41.729Z,99.99
2023-03-26T02:20:41.431Z,99.99
2023-03-26T02:21:41.438Z,99.99
2023-03-26T02:22:41.424Z,99.99
2023-03-26T02:23:41.428Z,99.99
2023-03-26T02:24:41.413Z,99.99
2023-03-26T02:25:41.403Z,99.99
2023-03-26T02:26:41.654Z,99.99
2023-03-26T02:27:41.345Z,99.99
2023-03-26T02:28:41.340Z,99.99
2023-03-26T02:29:41.415Z,99.99
2023-03-26T02:30:41.349Z,99.99
2023-03-26T02:31:41.381Z,99.99
2023-03-26T02:32:41.366Z,99.99
2023-03-26T02:33:41.596Z,99.99
2023-03-26T02:34:41.306Z,99.99
2023-03-26T02:35:41.387Z,99.99
2023-03-26T02:36:41.285Z,99.99
2023-03-26T02:37:41.253Z,99.99
2023-03-26T02:38:41.258Z,99.99
2023-03-26T02:39:41.249Z,99.99
2023-03-26T02:40:41.515Z,99.99
2023-03-26T02:41:41.295Z,99.99
2023-03-26T02:42:41.203Z,99.99
2023-03-26T02:43:41.186Z,99.99
2023-03-26T02:44:41.195Z,99.99
2023-03-26T02:45:41.251Z,99.99
2023-03-26T02:46:41.172Z,99.99
2023-03-26T02:47:41.235Z,99.99
2023-03-26T02:48:41.144Z,99.99
2023-03-26T02:49:41.125Z,99.99
2023-03-26T02:50:41.134Z,99.99
2023-03-26T02:51:41.116Z,99.99
2023-03-26T02:52:41.136Z,99.99
2023-03-26T02:53:41.469Z,99.99
2023-03-26T02:54:41.108Z,99.99
2023-03-26T02:55:41.133Z,99.99
2023-03-26T02:56:41.106Z,99.99
2023-03-26T02:57:41.063Z,99.99
2023-03-26T02:58:41.041Z,99.99
2023-03-26T02:59:41.057Z,99.99
2023-03-26T03:00:41.024Z,99.99
2023-03-26T03:01:41.143Z,99.99
2023-03-26T03:02:41.097Z,99.99
2023-03-26T03:03:41.015Z,99.99
2023-03-26T03:04:40.982Z,99.99
2023-03-26T03:05:41.325Z,99.99
2023-03-26T03:06:40.972Z,99.99
2023-03-26T03:07:40.964Z,99.99
2023-03-26T03:08:40.934Z,99.99
2023-03-26T03:09:40.936Z,99.99
2023-03-26T03:10:40.925Z,99.99
2023-03-26T03:11:40.981Z,99.99
2023-03-26T03:12:40.930Z,99.99
2023-03-26T03:13:40.878Z,99.99
2023-03-26T03:14:40.903Z,99.99
2023-03-26T03:15:40.859Z,99.99
2023-03-26T03:16:41.007Z,99.99
2023-03-26T03:17:41.280Z,99.99
2023-03-26T03:18:40.858Z,99.99
2023-03-26T03:19:40.823Z,99.99
2023-03-26T03:20:40.814Z,99.99
2023-03-26T03:21:40.825Z,99.99
2023-03-26T03:22:40.821Z,99.99
2023-03-26T03:23:41.584Z,99.99
2023-03-26T03:24:41.084Z,99.99
2023-03-26T03:25:40.822Z,99.99
2023-03-26T03:26:40.751Z,99.99
2023-03-26T03:27:40.743Z,99.99
2023-03-26T03:28:40.738Z,99.99
2023-03-26T03:29:40.755Z,99.99
2023-03-26T03:30:40.728Z,99.99
2023-03-26T03:31:41.001Z,99.99
2023-03-26T03:32:40.752Z,99.99
2023-03-26T03:33:40.685Z,99.99
2023-03-26T03:34:40.706Z,99.99
2023-03-26T03:35:40.819Z,99.99
2023-03-26T03:36:40.645Z,99.99
2023-03-26T03:37:40.646Z,99.99
2023-03-26T03:38:40.933Z,99.99
2023-03-26T03:39:40.632Z,99.99
2023-03-26T03:40:40.641Z,99.99
2023-03-26T03:41:40.715Z,99.99
2023-03-26T03:42:40.611Z,99.99
2023-03-26T03:43:40.607Z,99.99
2023-03-26T03:44:40.621Z,99.99
2023-03-26T03:45:40.844Z,99.99
2023-03-26T03:46:40.590Z,99.99
2023-03-26T03:47:40.599Z,99.99
2023-03-26T03:48:40.521Z,99.99
2023-03-26T03:49:40.506Z,99.99
2023-03-26T03:50:40.508Z,99.99
2023-03-26T03:51:40.518Z,99.99
2023-03-26T03:52:40.780Z,99.99
2023-03-26T03:53:40.511Z,99.99
2023-03-26T03:54:40.499Z,99.99
2023-03-26T03:55:40.469Z,99.99
2023-03-26T03:56:40.494Z,99.99
2023-03-26T03:57:40.427Z,99.99
2023-03-26T03:58:40.431Z,99.99
2023-03-26T03:59:47.752Z,99.99
2023-03-26T04:00:40.407Z,99.99
2023-03-26T04:01:40.458Z,99.99
2023-03-26T04:02:40.489Z,99.99
2023-03-26T04:03:40.508Z,99.99
2023-03-26T04:04:40.701Z,99.99
2023-03-26T04:05:40.488Z,99.99
2023-03-26T04:06:40.421Z,99.99
2023-03-26T04:07:40.330Z,99.99
2023-03-26T04:08:40.350Z,99.99
2023-03-26T04:09:40.348Z,99.99
2023-03-26T04:10:40.345Z,99.99
2023-03-26T04:11:40.346Z,99.99
2023-03-26T04:12:40.306Z,99.99
2023-03-26T04:13:40.248Z,99.99
2023-03-26T04:14:40.298Z,99.99
2023-03-26T04:15:40.276Z,99.99
2023-03-26T04:16:40.532Z,99.99
2023-03-26T04:17:40.291Z,99.99
2023-03-26T04:18:40.203Z,99.99
2023-03-26T04:19:40.204Z,99.99
2023-03-26T04:20:40.195Z,99.99
2023-03-26T04:21:40.201Z,99.99
2023-03-26T04:22:40.194Z,99.99
2023-03-26T04:23:40.221Z,99.99
2023-03-26T04:24:40.200Z,99.99
2023-03-26T04:25:40.161Z,99.99
2023-03-26T04:26:40.184Z,99.99
2023-03-26T04:27:40.141Z,99.99
2023-03-26T04:28:40.421Z,99.99
2023-03-26T04:29:40.205Z,99.99
2023-03-26T04:30:40.144Z,99.99
2023-03-26T04:31:40.135Z,99.99
2023-03-26T04:32:40.112Z,99.99
2023-03-26T04:33:40.074Z,99.99
2023-03-26T04:34:40.045Z,99.99
2023-03-26T04:35:40.401Z,99.99
2023-03-26T04:36:40.055Z,99.99
2023-03-26T04:37:40.096Z,99.99
2023-03-26T04:38:40.005Z,99.99
2023-03-26T04:39:39.997Z,99.99
2023-03-26T04:40:40.034Z,99.99
2023-03-26T04:41:40.027Z,99.99
2023-03-26T04:42:40.239Z,99.99
2023-03-26T04:43:39.968Z,99.99
2023-03-26T04:44:39.961Z,99.99
2023-03-26T04:45:39.942Z,99.99
2023-03-26T04:46:39.972Z,99.99
2023-03-26T04:47:40.001Z,99.99
2023-03-26T04:48:39.968Z,99.99
2023-03-26T04:49:40.171Z,99.99
2023-03-26T04:50:39.876Z,99.99
2023-03-26T04:51:39.888Z,99.99
2023-03-26T04:52:39.885Z,99.99
2023-03-26T04:53:39.912Z,99.99
2023-03-26T04:54:39.863Z,99.99
2023-03-26T04:55:39.861Z,99.99
2023-03-26T04:56:40.205Z,99.99
2023-03-26T04:57:39.837Z,99.99
2023-03-26T04:58:39.820Z,99.99
2023-03-26T04:59:39.844Z,99.99
2023-03-26T05:00:39.792Z,99.99
2023-03-26T05:01:39.829Z,99.99
2023-03-26T05:02:39.792Z,99.99
2023-03-26T05:03:40.048Z,99.99
2023-03-26T05:04:39.827Z,99.99
2023-03-26T05:05:39.801Z,99.99
2023-03-26T05:06:39.756Z,99.99
2023-03-26T05:07:39.746Z,99.99
2023-03-26T05:08:39.712Z,99.99
2023-03-26T05:09:39.711Z,99.99
2023-03-26T05:10:39.974Z,99.99
2023-03-26T05:11:39.733Z,99.99
2023-03-26T05:12:39.669Z,99.99
2023-03-26T05:13:39.642Z,99.99
2023-03-26T05:14:39.678Z,99.99
2023-03-26T05:15:39.621Z,99.99
2023-03-26T05:16:39.658Z,99.99
2023-03-26T05:17:39.964Z,99.99
2023-03-26T05:18:39.616Z,99.99
2023-03-26T05:19:39.567Z,99.99
2023-03-26T05:20:39.567Z,99.99
2023-03-26T05:21:39.574Z,99.99
2023-03-26T05:22:39.556Z,99.99
2023-03-26T05:23:39.580Z,99.99
2023-03-26T05:24:39.810Z,99.99
2023-03-26T05:25:39.506Z,99.99
2023-03-26T05:26:39.531Z,99.99
2023-03-26T05:27:39.511Z,99.99
2023-03-26T05:28:39.495Z,99.99
2023-03-26T05:29:39.541Z,99.99
2023-03-26T05:30:39.471Z,99.99
2023-03-26T05:31:39.764Z,99.99
2023-03-26T05:32:39.574Z,99.99
2023-03-26T05:33:39.540Z,99.99
2023-03-26T05:34:39.444Z,99.99
2023-03-26T05:35:39.501Z,99.99
2023-03-26T05:36:39.461Z,99.99
2023-03-26T05:37:39.387Z,99.99
2023-03-26T05:38:39.689Z,99.99
2023-03-26T05:39:39.436Z,99.99
2023-03-26T05:40:39.393Z,99.99
2023-03-26T05:41:39.419Z,99.99
2023-03-26T05:42:39.334Z,99.99
2023-03-26T05:43:39.332Z,99.99
2023-03-26T05:44:39.314Z,99.99
2023-03-26T05:45:39.669Z,99.99
2023-03-26T05:46:39.318Z,99.99
2023-03-26T05:47:39.390Z,99.99
2023-03-26T05:48:39.276Z,99.99
2023-03-26T05:49:39.365Z,99.99
2023-03-26T05:50:39.284Z,99.99
2023-03-26T05:51:39.246Z,99.99
2023-03-26T05:52:39.538Z,99.99
2023-03-26T05:53:39.260Z,99.99
2023-03-26T05:54:39.236Z,99.99
2023-03-26T05:55:39.232Z,99.99
2023-03-26T05:56:39.247Z,99.99
2023-03-26T05:57:39.238Z,99.99
2023-03-26T05:58:39.202Z,99.99
2023-03-26T05:59:40.257Z,99.99
2023-03-26T06:00:39.174Z,99.99
2023-03-26T06:01:39.158Z,99.99
2023-03-26T06:02:39.242Z,99.99
2023-03-26T06:03:39.384Z,99.99
2023-03-26T06:04:39.246Z,99.99
2023-03-26T06:05:39.177Z,99.99
2023-03-26T06:06:39.402Z,99.99
2023-03-26T06:07:39.099Z,99.99
2023-03-26T06:08:39.067Z,99.99
2023-03-26T06:09:39.069Z,99.99
2023-03-26T06:10:39.068Z,99.99
2023-03-26T06:11:39.099Z,99.99
2023-03-26T06:12:39.036Z,99.99
2023-03-26T06:13:39.308Z,99.99
2023-03-26T06:14:39.012Z,99.99
2023-03-26T06:15:39.038Z,99.99
2023-03-26T06:16:38.990Z,99.99
2023-03-26T06:17:39.068Z,99.99
2023-03-26T06:18:38.999Z,99.99
2023-03-26T06:19:38.986Z,99.99
2023-03-26T06:20:39.265Z,99.99
2023-03-26T06:21:38.980Z,99.99
2023-03-26T06:22:38.941Z,99.99
2023-03-26T06:23:38.955Z,99.99
2023-03-26T06:24:38.901Z,99.99
2023-03-26T06:25:38.929Z,99.99
2023-03-26T06:26:38.919Z,99.99
2023-03-26T06:27:39.153Z,99.99
2023-03-26T06:28:38.897Z,99.99
2023-03-26T06:29:38.935Z,99.99
2023-03-26T06:30:38.887Z,99.99
2023-03-26T06:31:38.854Z,99.99
2023-03-26T06:32:38.873Z,99.99
2023-03-26T06:33:38.889Z,99.99
2023-03-26T06:34:39.116Z,99.99
2023-03-26T06:35:38.917Z,99.99
2023-03-26T06:36:38.789Z,99.99
2023-03-26T06:37:38.811Z,99.99
2023-03-26T06:38:38.794Z,99.99
2023-03-26T06:39:38.786Z,99.99
2023-03-26T06:40:38.779Z,99.99
2023-03-26T06:41:39.076Z,99.99
2023-03-26T06:43:09.226Z,99.99
2023-03-26T06:43:38.748Z,99.99
2023-03-26T06:44:38.726Z,99.99
2023-03-26T06:45:38.702Z,99.99
2023-03-26T06:46:38.743Z,99.99
2023-03-26T06:47:38.801Z,99.99
2023-03-26T06:48:38.978Z,99.99
2023-03-26T06:49:38.654Z,99.99
2023-03-26T06:50:38.651Z,99.99
2023-03-26T06:51:38.662Z,99.99
2023-03-26T06:52:38.653Z,99.99
2023-03-26T06:53:38.671Z,99.99
2023-03-26T06:54:38.617Z,99.99
2023-03-26T06:55:38.907Z,99.99
2023-03-26T06:56:38.617Z,99.99
2023-03-26T06:57:38.621Z,99.99
2023-03-26T06:58:38.574Z,99.99
2023-03-26T06:59:38.634Z,99.99
2023-03-26T07:00:38.611Z,99.99
2023-03-26T07:01:38.610Z,99.99
2023-03-26T07:02:38.563Z,99.77
2023-03-26T07:03:38.588Z,99.67
2023-03-26T07:04:38.504Z,99.47
2023-03-26T07:05:38.826Z,99.16
2023-03-26T07:06:38.494Z,98.85
2023-03-26T07:07:45.842Z,98.70
2023-03-26T07:08:38.509Z,98.29
2023-03-26T07:09:38.471Z,98.13
2023-03-26T07:10:38.453Z,98.44
2023-03-26T07:11:38.498Z,98.60
2023-03-26T07:12:38.432Z,98.60
2023-03-26T07:13:38.456Z,98.60
2023-03-26T07:14:38.740Z,98.70
2023-03-26T07:15:38.449Z,99.01
2023-03-26T07:16:38.432Z,99.11
2023-03-26T07:17:38.493Z,99.01
2023-03-26T07:18:38.374Z,98.80
2023-03-26T07:19:38.417Z,98.25
2023-03-26T07:20:38.363Z,97.94
2023-03-26T07:21:38.362Z,97.73
2023-03-26T07:22:38.343Z,97.73
2023-03-26T07:23:38.381Z,97.53
2023-03-26T07:24:38.307Z,97.53
2023-03-26T07:25:38.293Z,97.48
2023-03-26T07:26:38.584Z,97.48
2023-03-26T07:27:38.310Z,97.28
2023-03-26T07:28:38.247Z,96.87
2023-03-26T07:29:38.325Z,96.77
2023-03-26T07:30:38.244Z,95.94
2023-03-26T07:31:38.287Z,95.74
2023-03-26T07:32:38.281Z,95.53
2023-03-26T07:33:38.251Z,95.69
2023-03-26T07:34:38.221Z,95.69
2023-03-26T07:35:38.277Z,95.59
2023-03-26T07:36:38.174Z,95.07
2023-03-26T07:37:38.191Z,95.07
2023-03-26T07:38:38.194Z,95.07
2023-03-26T07:39:38.449Z,94.87
2023-03-26T07:40:38.182Z,94.67
2023-03-26T07:41:38.185Z,94.36
2023-03-26T07:42:38.141Z,94.26
2023-03-26T07:43:38.153Z,94.15
2023-03-26T07:44:38.127Z,94.21
2023-03-26T07:45:38.099Z,94.73
2023-03-26T07:46:38.099Z,94.62
2023-03-26T07:47:38.148Z,94.42
2023-03-26T07:48:38.141Z,93.90
2023-03-26T07:49:38.311Z,93.45
2023-03-26T07:50:38.135Z,93.35
2023-03-26T07:51:38.060Z,92.53
2023-03-26T07:52:38.332Z,91.35
2023-03-26T07:53:38.069Z,91.20
2023-03-26T07:54:38.012Z,91.61
2023-03-26T07:55:38.010Z,91.71
2023-03-26T07:56:38.087Z,91.55
2023-03-26T07:57:38.028Z,91.44
2023-03-26T07:58:38.018Z,91.65
2023-03-26T07:59:38.274Z,91.75
2023-03-26T08:00:37.961Z,91.96
2023-03-26T08:01:37.961Z,92.16
2023-03-26T08:02:37.963Z,92.36
2023-03-26T08:03:37.998Z,92.32
2023-03-26T08:04:38.157Z,92.74
2023-03-26T08:05:37.914Z,92.83
2023-03-26T08:06:38.147Z,92.02
2023-03-26T08:07:37.876Z,90.89
2023-03-26T08:08:37.859Z,90.28
2023-03-26T08:09:37.858Z,89.97
2023-03-26T08:10:37.852Z,90.58
2023-03-26T08:11:37.901Z,90.58
2023-03-26T08:12:37.815Z,90.79
2023-03-26T08:13:37.797Z,91.30
2023-03-26T08:14:37.813Z,90.84
2023-03-26T08:15:38.120Z,90.64
2023-03-26T08:16:37.817Z,90.54
2023-03-26T08:17:37.847Z,90.23
2023-03-26T08:18:37.739Z,90.13
2023-03-26T08:19:38.839Z,89.04
2023-03-26T08:20:37.761Z,89.36
2023-03-26T08:21:37.739Z,89.45
2023-03-26T08:22:37.723Z,89.56
2023-03-26T08:23:37.762Z,89.97
2023-03-26T08:24:37.681Z,90.07
2023-03-26T08:25:38.169Z,90.17
2023-03-26T08:26:37.956Z,90.03
2023-03-26T08:27:37.665Z,90.64
2023-03-26T08:28:37.657Z,90.13
2023-03-26T08:29:38.123Z,89.62
2023-03-26T08:30:37.667Z,89.21
2023-03-26T08:31:37.692Z,89.72
2023-03-26T08:32:37.614Z,89.62
2023-03-26T08:33:38.546Z,89.31
2023-03-26T08:34:37.602Z,89.42
2023-03-26T08:35:37.724Z,89.31
2023-03-26T08:36:37.574Z,89.00
2023-03-26T08:37:37.548Z,88.59
2023-03-26T08:38:37.562Z,88.90
2023-03-26T08:39:37.547Z,89.00
2023-03-26T08:40:37.804Z,89.31
2023-03-26T08:41:37.591Z,89.42
2023-03-26T08:42:37.534Z,89.11
2023-03-26T08:43:37.547Z,89.11
2023-03-26T08:44:37.535Z,89.21
2023-03-26T08:45:37.466Z,89.42
2023-03-26T08:46:37.569Z,89.62
2023-03-26T08:47:37.818Z,88.70
2023-03-26T08:48:37.466Z,89.11
2023-03-26T08:49:37.427Z,89.31
2023-03-26T08:50:37.442Z,89.83
2023-03-26T08:51:37.410Z,89.92
2023-03-26T08:52:37.392Z,90.23
2023-03-26T08:53:37.418Z,90.23
2023-03-26T08:54:37.642Z,89.21
2023-03-26T08:55:37.358Z,89.21
2023-03-26T08:56:37.405Z,89.25
2023-03-26T08:57:37.340Z,89.66
2023-03-26T08:58:37.332Z,90.07
2023-03-26T08:59:37.348Z,90.28
2023-03-26T09:00:37.317Z,90.58
2023-03-26T09:01:37.326Z,90.58
2023-03-26T09:02:37.360Z,90.69
2023-03-26T09:03:37.372Z,90.89
2023-03-26T09:04:37.298Z,90.79
2023-03-26T09:05:37.315Z,91.20
2023-03-26T09:06:37.545Z,91.50
2023-03-26T09:07:37.283Z,91.50
2023-03-26T09:08:37.245Z,91.91
2023-03-26T09:09:37.210Z,91.26
2023-03-26T09:10:37.208Z,90.79
2023-03-26T09:11:37.247Z,90.69
2023-03-26T09:12:37.182Z,91.24
2023-03-26T09:13:37.208Z,91.44
2023-03-26T09:14:37.201Z,92.10
2023-03-26T09:15:37.175Z,92.93
2023-03-26T09:16:37.165Z,93.17
2023-03-26T09:17:37.251Z,94.20
2023-03-26T09:18:37.437Z,94.20
2023-03-26T09:19:37.117Z,94.61
2023-03-26T09:20:37.107Z,94.71
2023-03-26T09:21:37.109Z,94.30
2023-03-26T09:22:37.088Z,94.20
2023-03-26T09:23:37.142Z,93.99
2023-03-26T09:24:37.070Z,93.27
2023-03-26T09:25:37.460Z,93.32
2023-03-26T09:26:37.092Z,92.70
2023-03-26T09:27:37.082Z,93.01
2023-03-26T09:28:37.113Z,92.50
2023-03-26T09:29:37.068Z,92.91
2023-03-26T09:30:37.018Z,93.21
2023-03-26T09:31:37.030Z,93.52
2023-03-26T09:32:37.369Z,93.73
2023-03-26T09:33:37.120Z,94.24
2023-03-26T09:34:36.956Z,94.24
2023-03-26T09:35:37.044Z,94.85
2023-03-26T09:36:37.014Z,94.14
2023-03-26T09:37:36.964Z,94.76
2023-03-26T09:38:36.959Z,95.27
2023-03-26T09:39:38.299Z,96.25
2023-03-26T09:40:37.040Z,96.45
2023-03-26T09:41:37.009Z,96.56
2023-03-26T09:42:36.884Z,96.25
2023-03-26T09:43:36.929Z,96.15
2023-03-26T09:44:36.930Z,94.71
2023-03-26T09:45:36.989Z,95.02
2023-03-26T09:46:37.204Z,95.43
2023-03-26T09:47:37.014Z,96.25
2023-03-26T09:48:37.001Z,96.15
2023-03-26T09:49:36.884Z,95.43
2023-03-26T09:50:36.818Z,94.61
2023-03-26T09:51:36.887Z,92.86
2023-03-26T09:52:36.792Z,93.89
2023-03-26T09:53:37.172Z,93.68
2023-03-26T09:54:36.836Z,92.86
2023-03-26T09:55:36.780Z,92.60
2023-03-26T09:56:38.471Z,93.38
2023-03-26T09:57:36.880Z,92.76
2023-03-26T09:58:36.752Z,92.40
2023-03-26T09:59:36.758Z,91.27
2023-03-26T10:00:37.111Z,93.21
2023-03-26T10:01:36.774Z,93.63
2023-03-26T10:02:45.349Z,93.21
2023-03-26T10:03:36.699Z,93.83
2023-03-26T10:04:36.793Z,94.24
2023-03-26T10:05:36.776Z,95.17
2023-03-26T10:06:36.622Z,94.76
2023-03-26T10:07:36.924Z,94.76
2023-03-26T10:08:36.709Z,94.55
2023-03-26T10:09:36.709Z,95.43
2023-03-26T10:10:36.615Z,94.96
2023-03-26T10:11:36.718Z,94.45
2023-03-26T10:12:36.682Z,94.96
2023-03-26T10:13:36.551Z,94.04
2023-03-26T10:14:36.842Z,94.34
2023-03-26T10:15:36.538Z,94.85
2023-03-26T10:16:36.655Z,95.17
2023-03-26T10:17:36.632Z,95.78
2023-03-26T10:18:36.524Z,96.19
2023-03-26T10:19:36.527Z,96.35
2023-03-26T10:20:36.517Z,96.66
2023-03-26T10:21:36.771Z,96.04
2023-03-26T10:22:36.490Z,96.56
2023-03-26T10:23:36.522Z,96.25
2023-03-26T10:24:36.500Z,95.94
2023-03-26T10:25:37.056Z,95.68
2023-03-26T10:26:36.460Z,96.97
2023-03-26T10:27:36.457Z,97.48
2023-03-26T10:28:36.726Z,97.38
2023-03-26T10:29:36.440Z,96.66
2023-03-26T10:30:36.515Z,96.25
2023-03-26T10:31:36.424Z,96.25
2023-03-26T10:32:36.436Z,96.45
2023-03-26T10:33:36.485Z,96.15
2023-03-26T10:34:36.441Z,96.56
2023-03-26T10:35:36.479Z,96.97
2023-03-26T10:36:36.406Z,97.12
2023-03-26T10:37:36.356Z,96.50
2023-03-26T10:38:36.371Z,96.09
2023-03-26T10:39:38.962Z,96.50
2023-03-26T10:40:36.275Z,96.81
2023-03-26T10:41:36.355Z,96.70
2023-03-26T10:42:36.310Z,97.53
2023-03-26T10:43:36.413Z,98.45
2023-03-26T10:44:36.287Z,98.66
2023-03-26T10:45:36.276Z,99.27
2023-03-26T10:46:36.322Z,99.58
2023-03-26T10:47:36.305Z,99.43
2023-03-26T10:48:36.240Z,98.71
2023-03-26T10:49:36.228Z,97.42
2023-03-26T10:50:36.730Z,97.48
2023-03-26T10:51:36.235Z,97.69
2023-03-26T10:52:36.187Z,97.99
2023-03-26T10:53:36.505Z,98.71
2023-03-26T10:54:36.181Z,98.61
2023-03-26T10:55:36.215Z,98.41
2023-03-26T10:56:36.189Z,98.67
2023-03-26T10:57:36.153Z,98.87
2023-03-26T10:58:46.094Z,98.87
2023-03-26T10:59:36.220Z,97.74
2023-03-26T11:00:36.147Z,98.05
2023-03-26T11:01:36.208Z,97.85
2023-03-26T11:02:36.154Z,97.13
2023-03-26T11:03:36.117Z,97.85
2023-03-26T11:04:36.087Z,98.25
2023-03-26T11:05:36.182Z,97.95
2023-03-26T11:06:36.022Z,98.36
2023-03-26T11:07:36.026Z,98.20
2023-03-26T11:08:36.084Z,97.79
2023-03-26T11:09:36.054Z,98.71
2023-03-26T11:10:36.091Z,99.43
2023-03-26T11:11:36.027Z,99.99
2023-03-26T11:12:36.030Z,99.99
2023-03-26T11:13:35.984Z,99.99
2023-03-26T11:14:36.071Z,99.99
2023-03-26T11:15:36.039Z,99.99
2023-03-26T11:16:35.950Z,99.99
2023-03-26T11:17:39.307Z,99.99
2023-03-26T11:18:35.916Z,99.99
2023-03-26T11:19:35.897Z,99.99
2023-03-26T11:20:35.890Z,99.99
2023-03-26T11:21:35.895Z,99.99
2023-03-26T11:22:35.917Z,99.99
2023-03-26T11:23:35.899Z,99.99
2023-03-26T11:24:36.157Z,99.99
2023-03-26T11:25:35.868Z,99.99
2023-03-26T11:26:37.653Z,99.99
2023-03-26T11:27:35.880Z,99.99
2023-03-26T11:28:35.837Z,99.07
2023-03-26T11:29:35.859Z,99.58
2023-03-26T11:30:35.794Z,99.99
2023-03-26T11:31:36.119Z,99.99
2023-03-26T11:32:35.831Z,99.99
2023-03-26T11:33:35.750Z,99.99
2023-03-26T11:34:35.749Z,99.99
2023-03-26T11:35:39.853Z,99.99
2023-03-26T11:36:35.822Z,99.99
2023-03-26T11:37:35.885Z,99.99
2023-03-26T11:38:35.707Z,99.99
2023-03-26T11:39:35.708Z,99.99
2023-03-26T11:40:35.804Z,99.99
2023-03-26T11:41:35.780Z,99.99
2023-03-26T11:42:35.720Z,99.99
2023-03-26T11:43:35.772Z,99.99
2023-03-26T11:44:35.938Z,99.99
2023-03-26T11:45:35.657Z,99.99
2023-03-26T11:46:35.696Z,99.99
2023-03-26T11:47:35.787Z,99.99
2023-03-26T11:48:35.646Z,99.99
2023-03-26T11:49:35.662Z,99.99
2023-03-26T11:50:35.626Z,99.99
2023-03-26T11:51:35.891Z,99.99
2023-03-26T11:52:35.658Z,99.99
2023-03-26T11:53:35.642Z,99.99
2023-03-26T11:54:35.540Z,99.99
2023-03-26T11:55:35.563Z,99.99
2023-03-26T11:56:35.576Z,99.99
2023-03-26T11:57:35.659Z,99.99
2023-03-26T11:58:35.825Z,99.99
2023-03-26T11:59:45.203Z,99.99
2023-03-26T12:00:35.464Z,99.99
2023-03-26T12:01:35.514Z,99.99
2023-03-26T12:02:35.638Z,99.99
2023-03-26T12:03:35.450Z,99.99
2023-03-26T12:04:35.570Z,99.99
2023-03-26T12:05:35.842Z,99.99
2023-03-26T12:06:35.408Z,99.99
2023-03-26T12:07:35.421Z,99.99
2023-03-26T12:08:35.418Z,99.99
2023-03-26T12:09:35.381Z,99.99
2023-03-26T12:10:35.419Z,99.99
2023-03-26T12:11:35.758Z,99.99
2023-03-26T12:12:35.650Z,99.99
2023-03-26T12:13:35.316Z,99.99
2023-03-26T12:14:35.364Z,99.99
2023-03-26T12:15:35.901Z,99.99
2023-03-26T12:16:35.318Z,99.99
2023-03-26T12:17:35.905Z,99.99
2023-03-26T12:18:35.298Z,99.99
2023-03-26T12:19:35.547Z,99.99
2023-03-26T12:20:35.400Z,99.99
2023-03-26T12:21:35.241Z,99.99
2023-03-26T12:22:35.295Z,99.99
2023-03-26T12:23:35.359Z,99.99
2023-03-26T12:24:35.244Z,99.99
2023-03-26T12:25:35.196Z,99.44
2023-03-26T12:26:35.364Z,98.32
2023-03-26T12:27:35.381Z,97.60
2023-03-26T12:28:35.183Z,98.25
2023-03-26T12:29:35.237Z,99.54
2023-03-26T12:30:35.194Z,99.99
2023-03-26T12:31:35.239Z,99.99
2023-03-26T12:32:45.862Z,99.99
2023-03-26T12:33:35.250Z,99.99
2023-03-26T12:34:35.424Z,99.99
2023-03-26T12:35:35.215Z,99.99
2023-03-26T12:37:50.437Z,99.99
2023-03-26T12:39:16.176Z,99.99
2023-03-26T12:40:17.127Z,99.99
2023-03-26T12:40:52.246Z,99.99
2023-03-26T12:44:43.870Z,99.99
2023-03-26T12:44:59.642Z,99.99
2023-03-26T12:45:05.648Z,99.99
2023-03-26T12:47:55.708Z,99.99
2023-03-26T12:48:08.300Z,99.99
2023-03-26T12:48:14.032Z,99.99
2023-03-26T12:49:14.205Z,99.99
2023-03-26T12:50:13.909Z,99.99
2023-03-26T12:51:13.817Z,99.99
2023-03-26T12:52:13.771Z,99.99
2023-03-26T12:53:13.756Z,99.99
2023-03-26T12:54:13.776Z,99.99
2023-03-26T12:55:13.820Z,99.99